Time;durP1;ratioP1;P1;durP2;ratioP2;P2;SDS_P1;SDS_P2;PMS_P1;PMS_P2;Temp;Humidity;BMP_temperature;BMP_pressure;BME280_temperature;BME280_humidity;BME280_pressure;Samples;Min_cycle;Max_cycle;Signal;HPM_P1;HPM_P2
2022/02/16 00:01:39;;;;;;;1.50;0.93;;;22.60;58.60;;;;;;5074815;28;20478;-86
2022/02/16 00:04:07;;;;;;;1.13;0.93;;;22.60;58.60;;;;;;5073889;28;20925;-85
2022/02/16 00:06:34;;;;;;;1.00;0.80;;;22.60;58.60;;;;;;5074883;28;20444;-86
2022/02/16 00:09:01;;;;;;;1.60;1.00;;;22.70;58.70;;;;;;5074947;28;20447;-92
2022/02/16 00:11:28;;;;;;;1.20;0.80;;;22.60;58.60;;;;;;5074971;28;20429;-87
2022/02/16 00:13:55;;;;;;;1.40;1.03;;;22.60;58.60;;;;;;5074798;28;20492;-85
2022/02/16 00:16:22;;;;;;;1.50;1.00;;;22.60;58.60;;;;;;5074754;28;20439;-86
2022/02/16 00:18:49;;;;;;;1.20;0.90;;;22.60;58.60;;;;;;5074348;28;20486;-85
2022/02/16 00:21:17;;;;;;;1.60;1.10;;;22.60;58.60;;;;;;5074407;28;20492;-86
2022/02/16 00:23:44;;;;;;;1.00;0.80;;;22.60;58.70;;;;;;5074594;28;20443;-86
2022/02/16 00:26:11;;;;;;;1.30;1.03;;;22.60;59.20;;;;;;5074520;28;20441;-86
2022/02/16 00:28:37;;;;;;;1.50;1.00;;;22.60;58.60;;;;;;5074500;28;20441;-86
2022/02/16 00:31:05;;;;;;;1.30;0.93;;;22.60;58.60;;;;;;5074399;28;20441;-86
2022/02/16 00:33:32;;;;;;;1.00;0.70;;;22.60;58.60;;;;;;5074212;28;20436;-86
2022/02/16 00:35:58;;;;;;;1.97;1.30;;;22.60;58.60;;;;;;5074323;28;20459;-87
2022/02/16 00:38:26;;;;;;;1.40;1.10;;;22.60;58.60;;;;;;5074361;28;20539;-85
2022/02/16 00:40:53;;;;;;;1.27;0.90;;;22.50;58.50;;;;;;5074254;28;20799;-86
2022/02/16 00:43:20;;;;;;;2.60;0.90;;;22.60;58.60;;;;;;5074277;28;20476;-86
2022/02/16 00:45:47;;;;;;;1.03;0.80;;;22.50;58.50;;;;;;5074225;28;20459;-86
2022/02/16 00:48:15;;;;;;;1.10;0.80;;;22.50;58.50;;;;;;5074114;28;20436;-85
2022/02/16 00:50:42;;;;;;;1.10;0.90;;;22.50;58.50;;;;;;5073902;28;20919;-91
2022/02/16 00:53:10;;;;;;;1.10;0.70;;;22.50;59.10;;;;;;5073763;28;20864;-85
2022/02/16 00:55:38;;;;;;;1.20;1.10;;;22.60;58.60;;;;;;5074142;28;20459;-85
2022/02/16 00:58:06;;;;;;;1.60;0.90;;;22.50;58.50;;;;;;5073969;28;20444;-86
2022/02/16 01:00:33;;;;;;;1.20;0.90;;;22.50;58.60;;;;;;5073827;28;20432;-85
2022/02/16 01:03:00;;;;;;;1.20;0.90;;;22.50;58.50;;;;;;5073675;28;20492;-86
2022/02/16 01:05:26;;;;;;;1.07;0.80;;;22.50;58.50;;;;;;5074116;28;20433;-90
2022/02/16 01:07:53;;;;;;;1.10;0.80;;;22.50;58.60;;;;;;5073740;28;20551;-85
2022/02/16 01:10:21;;;;;;;1.17;0.90;;;22.50;58.60;;;;;;5073763;28;20437;-85
2022/02/16 01:12:49;;;;;;;1.20;0.80;;;22.50;58.50;;;;;;5073594;28;20441;-85
2022/02/16 01:15:17;;;;;;;1.10;0.90;;;22.50;58.60;;;;;;5074103;28;20441;-92
2022/02/16 01:17:45;;;;;;;1.07;0.80;;;22.50;58.60;;;;;;5073473;28;20464;-85
2022/02/16 01:20:12;;;;;;;1.10;0.77;;;22.50;58.60;;;;;;5073571;28;20437;-85
2022/02/16 01:22:39;;;;;;;1.00;0.77;;;22.50;58.60;;;;;;5073307;28;20494;-85
2022/02/16 01:25:06;;;;;;;1.57;1.00;;;22.60;58.70;;;;;;5073620;28;20437;-86
2022/02/16 01:27:33;;;;;;;1.13;0.70;;;22.50;58.60;;;;;;5073403;28;20440;-85
2022/02/16 01:30:01;;;;;;;1.27;0.80;;;22.50;58.60;;;;;;5073446;28;20437;-91
2022/02/16 01:32:28;;;;;;;1.40;1.00;;;22.50;58.60;;;;;;5073537;28;20520;-91
2022/02/16 01:34:54;;;;;;;1.00;0.80;;;22.50;58.60;;;;;;5073490;28;20437;-85
2022/02/16 01:37:21;;;;;;;0.90;0.70;;;22.50;58.60;;;;;;5073460;28;20448;-92
2022/02/16 01:39:48;;;;;;;1.07;0.80;;;22.50;58.60;;;;;;5073298;28;20444;-85
2022/02/16 01:42:16;;;;;;;1.07;0.80;;;22.50;58.60;;;;;;5073247;28;20488;-85
2022/02/16 01:44:43;;;;;;;1.00;0.80;;;22.50;58.60;;;;;;5073283;28;20448;-86
2022/02/16 01:47:12;;;;;;;1.10;0.80;;;22.50;58.60;;;;;;5073129;28;20974;-86
2022/02/16 01:49:40;;;;;;;1.30;0.80;;;22.50;58.60;;;;;;5073246;28;20441;-85
2022/02/16 01:52:08;;;;;;;1.33;0.83;;;22.50;58.60;;;;;;5073491;28;20813;-91
2022/02/16 01:54:36;;;;;;;1.10;0.90;;;22.50;58.60;;;;;;5073549;28;20433;-86
2022/02/16 01:57:06;;;;;;;0.90;0.70;;;22.50;58.60;;;;;;5073344;28;20435;-86
2022/02/16 01:59:34;;;;;;;1.10;0.80;;;22.50;58.60;;;;;;5073104;28;20795;-86
2022/02/16 02:02:01;;;;;;;2.17;0.70;;;22.50;58.60;;;;;;5073119;28;20571;-92
2022/02/16 02:04:29;;;;;;;1.10;0.70;;;22.40;58.60;;;;;;5073281;28;20449;-91
2022/02/16 02:06:56;;;;;;;2.40;0.80;;;22.50;58.60;;;;;;5073017;28;20441;-86
2022/02/16 02:09:23;;;;;;;1.00;0.70;;;22.50;58.60;;;;;;5073228;28;20623;-86
2022/02/16 02:11:50;;;;;;;1.00;0.77;;;22.40;58.50;;;;;;5073100;28;20440;-86
2022/02/16 02:14:17;;;;;;;1.20;0.87;;;22.50;58.60;;;;;;5072952;28;20452;-86
2022/02/16 02:16:44;;;;;;;0.97;0.70;;;22.40;58.50;;;;;;5072867;28;20810;-86
2022/02/16 02:19:11;;;;;;;1.00;0.70;;;22.50;58.60;;;;;;5072992;28;20524;-85
2022/02/16 02:21:39;;;;;;;1.10;0.90;;;22.40;58.50;;;;;;5073252;28;20865;-86
2022/02/16 02:24:07;;;;;;;1.00;0.80;;;22.40;58.50;;;;;;5073115;28;20449;-86
2022/02/16 02:26:34;;;;;;;1.00;0.70;;;22.40;58.50;;;;;;5074219;28;20448;-85
2022/02/16 02:29:01;;;;;;;2.07;0.83;;;22.40;58.50;;;;;;5076838;28;20441;-86
2022/02/16 02:31:29;;;;;;;1.27;0.80;;;22.40;58.60;;;;;;5076853;28;20810;-92
2022/02/16 02:33:56;;;;;;;1.50;0.90;;;22.40;58.50;;;;;;5076605;28;20436;-86
2022/02/16 02:36:23;;;;;;;1.00;0.70;;;22.40;58.50;;;;;;5076747;28;20436;-86
2022/02/16 02:38:51;;;;;;;1.00;0.70;;;22.40;58.50;;;;;;5076438;28;20454;-86
2022/02/16 02:41:18;;;;;;;0.90;0.70;;;22.40;58.60;;;;;;5076561;28;20432;-91
2022/02/16 02:43:46;;;;;;;1.07;0.80;;;22.40;58.50;;;;;;5076311;28;20518;-86
2022/02/16 02:46:13;;;;;;;1.07;0.80;;;22.40;58.50;;;;;;5076535;28;20437;-86
2022/02/16 02:48:40;;;;;;;1.20;0.77;;;22.40;58.50;;;;;;5076407;28;20819;-86
2022/02/16 02:51:07;;;;;;;1.03;0.80;;;22.40;58.50;;;;;;5076431;28;20471;-86
2022/02/16 02:53:35;;;;;;;1.13;0.80;;;22.40;58.60;;;;;;5076397;28;20441;-86
2022/02/16 02:56:03;;;;;;;1.10;0.90;;;22.40;58.60;;;;;;5076180;28;20547;-86
2022/02/16 02:58:30;;;;;;;1.00;0.80;;;22.40;58.60;;;;;;5076241;28;20436;-87
2022/02/16 03:00:58;;;;;;;1.00;0.70;;;22.40;58.50;;;;;;5076205;28;20965;-86
2022/02/16 03:03:25;;;;;;;1.00;0.80;;;22.40;58.50;;;;;;5076122;28;20526;-86
2022/02/16 03:05:52;;;;;;;1.00;0.80;;;22.40;58.50;;;;;;5076155;28;20440;-86
2022/02/16 03:08:19;;;;;;;1.00;0.70;;;22.40;58.50;;;;;;5075881;28;20502;-86
2022/02/16 03:10:46;;;;;;;1.00;0.70;;;22.40;58.50;;;;;;5075914;28;20526;-86
2022/02/16 03:13:19;;;;;;;1.03;0.70;;;22.40;58.50;;;;;;5075848;28;20511;-86
2022/02/16 03:15:47;;;;;;;1.00;0.80;;;22.40;58.50;;;;;;5075874;28;20977;-86
2022/02/16 03:18:14;;;;;;;1.23;0.80;;;22.40;58.60;;;;;;5075407;28;20468;-86
2022/02/16 03:20:41;;;;;;;1.00;0.80;;;22.40;58.60;;;;;;5075619;28;20460;-86
2022/02/16 03:23:08;;;;;;;1.40;1.00;;;22.40;58.60;;;;;;5075894;28;20492;-86
2022/02/16 03:25:35;;;;;;;1.00;0.70;;;22.40;58.60;;;;;;5075944;28;20441;-86
2022/02/16 03:28:02;;;;;;;1.10;0.80;;;22.40;58.60;;;;;;5075384;28;20449;-86
2022/02/16 03:30:30;;;;;;;1.00;0.70;;;22.40;58.60;;;;;;5075481;28;20439;-91
2022/02/16 03:32:57;;;;;;;0.90;0.70;;;22.40;58.50;;;;;;5075883;28;20437;-86
2022/02/16 03:35:24;;;;;;;1.00;0.80;;;22.40;58.60;;;;;;5075675;28;20432;-86
2022/02/16 03:37:53;;;;;;;1.00;0.70;;;22.40;58.60;;;;;;5074210;28;20445;-86
2022/02/16 03:40:20;;;;;;;1.00;0.73;;;22.40;58.60;;;;;;5075279;28;20448;-86
2022/02/16 03:42:48;;;;;;;1.10;0.80;;;22.30;58.50;;;;;;5075488;28;20477;-86
2022/02/16 03:45:15;;;;;;;1.00;0.70;;;22.30;58.50;;;;;;5075161;28;20436;-86
2022/02/16 03:47:44;;;;;;;0.90;0.60;;;22.40;58.60;;;;;;5075406;28;20435;-86
2022/02/16 03:50:11;;;;;;;1.00;0.77;;;22.30;58.50;;;;;;5075675;28;20469;-86
2022/02/16 03:52:38;;;;;;;1.20;0.73;;;22.40;58.60;;;;;;5075439;28;20461;-86
2022/02/16 03:55:05;;;;;;;1.17;0.80;;;22.40;58.60;;;;;;5075017;28;20441;-86
2022/02/16 03:57:32;;;;;;;1.47;0.80;;;22.30;58.50;;;;;;5074903;28;20791;-86
2022/02/16 03:59:59;;;;;;;1.30;0.90;;;22.30;58.50;;;;;;5075033;28;20447;-91
2022/02/16 04:02:26;;;;;;;1.00;0.70;;;22.30;58.50;;;;;;5074798;28;20479;-86
2022/02/16 04:04:54;;;;;;;0.93;0.70;;;22.30;58.50;;;;;;5075185;28;20449;-86
2022/02/16 04:07:21;;;;;;;1.00;0.80;;;22.30;58.50;;;;;;5074830;28;20444;-86
2022/02/16 04:09:48;;;;;;;1.00;0.80;;;22.40;58.60;;;;;;5074743;28;20471;-86
2022/02/16 04:12:15;;;;;;;0.90;0.60;;;22.30;58.50;;;;;;5074675;28;20519;-86
2022/02/16 04:14:41;;;;;;;1.47;0.70;;;22.30;58.50;;;;;;5074705;28;20444;-86
2022/02/16 04:17:08;;;;;;;1.00;0.70;;;22.30;58.50;;;;;;5074235;28;20483;-86
2022/02/16 04:19:35;;;;;;;0.90;0.60;;;22.30;58.50;;;;;;5074633;28;20443;-86
2022/02/16 04:22:04;;;;;;;0.97;0.70;;;22.30;58.50;;;;;;5074362;28;20465;-86
2022/02/16 04:24:31;;;;;;;1.00;0.70;;;22.30;58.50;;;;;;5074545;28;20491;-86
2022/02/16 04:26:58;;;;;;;0.90;0.60;;;22.30;58.50;;;;;;5074550;28;20441;-87
2022/02/16 04:29:24;;;;;;;1.00;0.70;;;22.30;58.50;;;;;;5074512;28;20437;-91
2022/02/16 04:31:51;;;;;;;1.00;0.70;;;22.30;58.50;;;;;;5074439;28;20435;-86
2022/02/16 04:34:18;;;;;;;0.90;0.60;;;22.40;58.60;;;;;;5074541;28;20447;-86
2022/02/16 04:36:45;;;;;;;0.90;0.60;;;22.30;58.50;;;;;;5074208;28;20924;-86
2022/02/16 04:39:15;;;;;;;1.00;0.70;;;22.30;58.50;;;;;;5074117;28;20954;-86
2022/02/16 04:41:42;;;;;;;1.10;0.80;;;22.30;58.50;;;;;;5074293;28;20978;-86
2022/02/16 04:44:09;;;;;;;1.00;0.60;;;22.30;58.50;;;;;;5074379;28;20480;-91
2022/02/16 04:46:35;;;;;;;0.90;0.70;;;22.30;59.10;;;;;;5073972;28;20939;-86
2022/02/16 04:49:02;;;;;;;0.90;0.60;;;22.30;58.50;;;;;;5073425;28;20437;-86
2022/02/16 04:51:29;;;;;;;1.00;0.70;;;22.30;58.60;;;;;;5074028;28;20472;-86
2022/02/16 04:53:56;;;;;;;1.00;0.80;;;22.30;58.50;;;;;;5073866;28;20453;-92
2022/02/16 04:56:24;;;;;;;1.00;0.60;;;22.30;58.50;;;;;;5073669;28;20447;-90
2022/02/16 04:58:51;;;;;;;0.90;0.70;;;22.30;58.50;;;;;;5055065;28;20437;-89
2022/02/16 05:01:20;;;;;;;0.90;0.70;;;22.30;58.50;;;;;;5058612;28;20429;-86
2022/02/16 05:03:47;;;;;;;1.30;0.80;;;22.30;58.50;;;;;;5056519;28;22135;-84
2022/02/16 05:06:14;;;;;;;0.90;0.60;;;22.30;58.50;;;;;;5073553;28;20433;-85
2022/02/16 05:08:41;;;;;;;1.00;0.70;;;22.30;58.50;;;;;;5077977;28;20916;-86
2022/02/16 05:11:08;;;;;;;0.90;0.70;;;22.30;58.50;;;;;;5061905;28;20441;-87
2022/02/16 05:13:37;;;;;;;0.90;0.60;;;22.30;58.50;;;;;;5063748;28;20430;-86
2022/02/16 05:16:04;;;;;;;0.90;0.60;;;22.30;58.50;;;;;;5059947;28;20509;-87
2022/02/16 05:18:33;;;;;;;1.00;0.77;;;22.30;58.50;;;;;;5064488;28;20527;-86
2022/02/16 05:21:00;;;;;;;0.90;0.60;;;22.30;58.50;;;;;;5069840;28;20453;-86
2022/02/16 05:23:28;;;;;;;1.00;0.70;;;22.30;58.50;;;;;;5073399;28;20480;-86
2022/02/16 05:25:55;;;;;;;1.00;0.70;;;22.30;58.50;;;;;;5072685;28;20491;-87
2022/02/16 05:28:22;;;;;;;1.00;0.70;;;22.30;58.50;;;;;;5065756;28;20464;-86
2022/02/16 05:30:51;;;;;;;1.00;0.80;;;22.30;58.50;;;;;;5067640;28;20444;-86
2022/02/16 05:33:18;;;;;;;1.00;0.70;;;22.30;58.50;;;;;;5076601;28;20795;-85
2022/02/16 05:35:45;;;;;;;1.00;0.67;;;22.30;58.50;;;;;;5059363;28;20430;-86
2022/02/16 05:38:13;;;;;;;1.00;0.67;;;22.30;58.50;;;;;;5068529;28;20516;-86
2022/02/16 05:40:42;;;;;;;0.90;0.60;;;22.30;58.50;;;;;;5063085;28;20491;-86
2022/02/16 05:43:10;;;;;;;1.00;0.70;;;22.10;58.30;;;;;;5064068;28;20478;-85
2022/02/16 05:45:37;;;;;;;1.00;0.70;;;22.30;58.50;;;;;;5062150;28;20433;-91
2022/02/16 05:48:07;;;;;;;0.90;0.70;;;22.30;58.50;;;;;;5068119;28;20487;-90
2022/02/16 05:50:34;;;;;;;1.00;0.70;;;22.30;58.40;;;;;;5053454;28;20476;-89
2022/02/16 05:53:02;;;;;;;1.30;0.70;;;22.30;58.40;;;;;;5057574;28;20445;-90
2022/02/16 05:55:29;;;;;;;1.00;0.70;;;22.30;58.40;;;;;;5075093;28;20445;-91
2022/02/16 05:57:56;;;;;;;1.00;0.70;;;22.30;58.40;;;;;;5094361;28;20808;-90
2022/02/16 06:00:23;;;;;;;1.00;0.70;;;22.30;58.40;;;;;;5080194;28;20440;-91
2022/02/16 06:02:50;;;;;;;1.00;0.80;;;22.30;58.40;;;;;;5076966;28;20945;-84
2022/02/16 06:05:18;;;;;;;0.90;0.70;;;22.30;58.40;;;;;;5092557;28;20786;-89
2022/02/16 06:07:45;;;;;;;0.90;0.53;;;22.20;58.40;;;;;;5097291;28;20801;-85
2022/02/16 06:10:12;;;;;;;0.90;0.60;;;22.20;58.30;;;;;;5097548;28;20435;-85
2022/02/16 06:12:42;;;;;;;1.10;0.80;;;22.30;58.30;;;;;;5097705;28;20427;-88
2022/02/16 06:15:11;;;;;;;1.00;0.70;;;22.30;58.40;;;;;;5097335;28;20431;-90
2022/02/16 06:17:38;;;;;;;0.90;0.60;;;22.20;58.30;;;;;;5097172;28;20471;-85
2022/02/16 06:20:06;;;;;;;0.90;0.60;;;22.30;58.40;;;;;;5097295;28;20459;-85
2022/02/16 06:22:34;;;;;;;1.03;0.63;;;22.30;58.40;;;;;;5096957;28;20819;-89
2022/02/16 06:25:03;;;;;;;1.00;0.70;;;22.30;58.40;;;;;;5097002;28;20506;-85
2022/02/16 06:27:31;;;;;;;1.00;0.67;;;22.20;58.30;;;;;;5097121;28;20485;-85
2022/02/16 06:29:57;;;;;;;1.03;0.60;;;22.20;58.30;;;;;;5097115;28;20443;-85
2022/02/16 06:32:24;;;;;;;1.03;0.67;;;22.20;58.30;;;;;;5097398;28;20442;-85
2022/02/16 06:34:51;;;;;;;0.90;0.60;;;22.30;58.40;;;;;;5097077;28;20447;-85
2022/02/16 06:37:18;;;;;;;1.10;0.70;;;22.20;58.20;;;;;;5096432;28;20439;-85
2022/02/16 06:39:46;;;;;;;1.00;0.63;;;22.20;58.30;;;;;;5096821;28;20806;-85
2022/02/16 06:42:13;;;;;;;1.00;0.70;;;22.20;58.20;;;;;;5096917;28;20439;-85
2022/02/16 06:44:40;;;;;;;1.00;0.70;;;22.20;58.20;;;;;;5093222;28;20476;-89
2022/02/16 06:47:08;;;;;;;1.00;0.60;;;22.20;58.20;;;;;;5076045;28;20958;-93
2022/02/16 06:49:35;;;;;;;1.53;0.67;;;22.20;58.20;;;;;;5076083;28;20498;-89
2022/02/16 06:52:02;;;;;;;1.03;0.80;;;22.20;58.30;;;;;;5056742;28;20927;-86
2022/02/16 06:54:28;;;;;;;0.93;0.70;;;22.30;58.20;;;;;;5074093;28;20441;-86
2022/02/16 06:56:57;;;;;;;1.53;0.80;;;22.30;58.20;;;;;;5074757;28;20433;-89
2022/02/16 06:59:23;;;;;;;1.57;0.70;;;22.30;58.20;;;;;;5055847;28;20928;-84
2022/02/16 07:01:50;;;;;;;1.10;0.80;;;22.30;58.20;;;;;;5055978;28;20446;-85
2022/02/16 07:04:18;;;;;;;0.93;0.70;;;22.30;58.30;;;;;;5055764;28;20485;-85
2022/02/16 07:06:44;;;;;;;1.00;0.70;;;22.30;58.20;;;;;;5056224;28;20434;-88
2022/02/16 07:09:11;;;;;;;1.63;0.80;;;22.30;58.20;;;;;;5056063;28;20803;-85
2022/02/16 07:11:38;;;;;;;0.97;0.60;;;22.30;58.40;;;;;;5056190;28;20529;-85
2022/02/16 07:14:06;;;;;;;1.10;0.63;;;22.30;58.70;;;;;;5055712;28;20449;-89
2022/02/16 07:16:33;;;;;;;1.00;0.70;;;22.30;59.00;;;;;;5055776;28;20438;-85
2022/02/16 07:19:00;;;;;;;1.17;0.87;;;22.30;59.20;;;;;;5055946;28;20441;-85
2022/02/16 07:21:27;;;;;;;0.90;0.60;;;22.30;59.30;;;;;;5055700;28;20465;-84
2022/02/16 07:23:54;;;;;;;1.00;0.70;;;22.30;59.30;;;;;;5055586;28;20474;-84
2022/02/16 07:26:21;;;;;;;1.00;0.70;;;22.30;59.40;;;;;;5055593;28;20449;-85
2022/02/16 07:28:48;;;;;;;0.90;0.70;;;22.40;59.50;;;;;;5055567;28;20444;-85
2022/02/16 07:31:16;;;;;;;1.00;0.70;;;22.40;59.50;;;;;;5055122;28;20959;-90
2022/02/16 07:33:43;;;;;;;1.10;0.60;;;22.40;59.50;;;;;;5055698;28;20430;-88
2022/02/16 07:36:10;;;;;;;1.03;0.80;;;22.40;59.50;;;;;;5055353;28;20434;-85
2022/02/16 07:38:37;;;;;;;1.40;0.70;;;22.50;59.60;;;;;;5055451;28;20442;-85
2022/02/16 07:41:03;;;;;;;1.00;0.63;;;22.50;59.50;;;;;;5055359;28;20952;-88
2022/02/16 07:43:30;;;;;;;1.00;0.70;;;22.50;59.50;;;;;;5055175;28;20477;-85
2022/02/16 07:45:57;;;;;;;1.00;0.60;;;22.60;59.60;;;;;;5055244;28;20446;-86
2022/02/16 07:48:25;;;;;;;1.40;0.70;;;22.60;60.30;;;;;;5055341;28;20444;-85
2022/02/16 07:50:52;;;;;;;1.03;0.80;;;22.60;59.60;;;;;;5055138;28;20810;-88
2022/02/16 07:53:19;;;;;;;0.90;0.63;;;22.70;59.60;;;;;;5055257;28;20441;-85
2022/02/16 07:55:46;;;;;;;0.90;0.60;;;22.70;59.60;;;;;;5055113;28;20532;-85
2022/02/16 07:58:13;;;;;;;4.23;0.87;;;22.70;59.50;;;;;;5055264;28;20465;-83
2022/02/16 08:00:40;;;;;;;2.97;0.60;;;22.80;59.70;;;;;;5054378;28;20449;-85
2022/02/16 08:03:08;;;;;;;1.00;0.70;;;22.80;59.50;;;;;;5054390;28;20556;-85
2022/02/16 08:05:36;;;;;;;2.97;0.67;;;22.80;59.80;;;;;;5054830;28;20485;-81
2022/02/16 08:08:03;;;;;;;1.47;0.83;;;22.80;59.60;;;;;;5054775;28;20434;-88
2022/02/16 08:10:31;;;;;;;0.90;0.60;;;22.90;59.70;;;;;;5054369;28;20445;-88
2022/02/16 08:12:59;;;;;;;1.07;0.70;;;22.90;59.50;;;;;;5054328;28;20452;-87
2022/02/16 08:15:26;;;;;;;1.20;0.70;;;22.90;59.70;;;;;;5063667;28;20499;-87
2022/02/16 08:17:53;;;;;;;1.00;0.60;;;22.90;59.80;;;;;;5074177;28;20477;-90
2022/02/16 08:20:21;;;;;;;1.00;0.60;;;22.90;59.90;;;;;;5060041;28;20442;-90
2022/02/16 08:22:49;;;;;;;2.20;1.00;;;23.00;60.00;;;;;;5054691;28;20438;-90
2022/02/16 08:25:16;;;;;;;2.83;0.90;;;23.10;60.20;;;;;;5053501;28;20491;-93
2022/02/16 08:27:43;;;;;;;0.90;0.70;;;23.00;60.00;;;;;;5054619;28;20446;-93
2022/02/16 08:30:11;;;;;;;1.10;0.90;;;23.10;60.20;;;;;;5054573;28;20441;-93
2022/02/16 08:32:38;;;;;;;1.13;0.70;;;23.10;60.10;;;;;;5054641;28;20441;-88
2022/02/16 08:35:06;;;;;;;3.93;0.80;;;23.10;60.00;;;;;;5068836;28;20448;-89
2022/02/16 08:37:33;;;;;;;1.90;0.93;;;23.10;60.00;;;;;;5057627;28;20463;-89
2022/02/16 08:40:01;;;;;;;1.20;0.70;;;23.20;60.00;;;;;;5056182;28;20441;-91
2022/02/16 08:42:28;;;;;;;4.40;0.70;;;23.20;59.90;;;;;;5055084;28;20452;-84
2022/02/16 08:44:58;;;;;;;1.23;0.70;;;23.20;59.90;;;;;;5054176;28;20484;-84
2022/02/16 08:47:25;;;;;;;1.87;0.60;;;23.30;60.00;;;;;;5054069;28;20446;-87
2022/02/16 08:49:51;;;;;;;1.40;0.80;;;23.30;59.90;;;;;;5064789;28;20433;-88
2022/02/16 08:52:18;;;;;;;1.10;0.70;;;23.40;60.00;;;;;;5061647;28;20445;-90
2022/02/16 08:54:45;;;;;;;1.10;0.80;;;23.40;59.90;;;;;;5053859;28;20449;-85
2022/02/16 08:57:14;;;;;;;4.23;1.00;;;23.40;59.80;;;;;;5053723;28;20448;-84
2022/02/16 08:59:40;;;;;;;3.37;0.80;;;23.50;59.90;;;;;;5056407;28;20442;-88
2022/02/16 09:02:08;;;;;;;1.10;0.60;;;23.50;60.00;;;;;;5053848;28;20801;-86
2022/02/16 09:04:35;;;;;;;1.03;0.73;;;23.50;59.80;;;;;;5054048;28;20473;-90
2022/02/16 09:09:46;;;;;;;2.43;0.83;;;23.50;59.70;;;;;;5053951;28;20421;-85
2022/02/16 09:12:14;;;;;;;1.73;0.80;;;23.50;59.80;;;;;;5054100;28;20441;-86
2022/02/16 09:14:41;;;;;;;1.33;0.83;;;23.60;59.80;;;;;;5053911;28;20563;-82
2022/02/16 09:17:08;;;;;;;1.90;0.80;;;23.50;59.70;;;;;;5053229;28;20496;-88
2022/02/16 09:19:35;;;;;;;1.53;1.00;;;23.60;59.70;;;;;;5053836;28;20803;-92
2022/02/16 09:22:02;;;;;;;1.20;0.80;;;23.60;59.60;;;;;;5053175;28;20975;-85
2022/02/16 09:24:29;;;;;;;1.10;0.73;;;23.60;59.60;;;;;;5053308;28;20493;-84
2022/02/16 09:26:55;;;;;;;1.10;0.80;;;23.60;60.40;;;;;;5053351;28;20445;-91
2022/02/16 09:29:24;;;;;;;1.30;0.90;;;23.60;59.50;;;;;;5053473;28;20444;-84
2022/02/16 09:31:52;;;;;;;1.10;0.80;;;23.60;59.50;;;;;;5056151;28;20537;-82
2022/02/16 09:34:19;;;;;;;1.60;0.90;;;23.60;59.50;;;;;;5057073;28;20442;-81
2022/02/16 09:36:47;;;;;;;1.93;0.93;;;23.60;59.60;;;;;;5067094;28;20433;-82
2022/02/16 09:39:15;;;;;;;1.43;0.90;;;23.60;59.70;;;;;;5054231;28;20442;-84
2022/02/16 09:41:44;;;;;;;1.93;0.90;;;23.60;59.60;;;;;;5053241;28;20446;-84
2022/02/16 09:44:13;;;;;;;1.70;0.97;;;23.60;59.50;;;;;;5053579;28;20477;-84
2022/02/16 09:46:41;;;;;;;3.43;1.00;;;23.60;59.40;;;;;;5053197;28;21023;-85
2022/02/16 09:49:11;;;;;;;1.37;0.93;;;23.70;59.60;;;;;;5053371;28;20491;-85
2022/02/16 09:51:38;;;;;;;1.10;0.80;;;23.70;59.50;;;;;;5053506;28;20991;-85
2022/02/16 09:54:05;;;;;;;2.70;0.80;;;23.70;59.50;;;;;;5058302;28;20449;-86
2022/02/16 09:56:32;;;;;;;3.33;0.93;;;23.70;59.60;;;;;;5071183;28;20912;-81
2022/02/16 09:59:00;;;;;;;2.90;1.07;;;23.80;59.50;;;;;;5073120;28;20469;-89
2022/02/16 10:01:26;;;;;;;2.47;0.87;;;23.80;59.90;;;;;;5073307;28;20444;-83
2022/02/16 10:04:03;;;;;;;3.77;1.17;;;23.70;59.80;;;;;;5072952;28;20437;-83
2022/02/16 10:06:38;;;;;;;2.80;1.00;;;23.80;60.50;;;;;;5073292;28;20468;-83
2022/02/16 10:09:05;;;;;;;3.83;1.53;;;23.90;59.80;;;;;;5058913;28;20793;-83
2022/02/16 10:11:33;;;;;;;3.30;1.10;;;23.90;59.90;;;;;;5062942;28;20459;-82
2022/02/16 10:14:19;;;;;;;2.20;1.20;;;23.90;59.90;;;;;;5066999;28;20448;-86
2022/02/16 10:16:46;;;;;;;3.00;1.20;;;24.00;60.40;;;;;;5052311;28;20932;-91
2022/02/16 10:19:15;;;;;;;3.40;1.30;;;24.00;60.20;;;;;;5069266;28;20437;-84
2022/02/16 10:22:00;;;;;;;2.00;1.10;;;24.00;60.40;;;;;;5067819;28;20907;-87
2022/02/16 10:24:28;;;;;;;6.63;1.50;;;24.10;60.40;;;;;;5055420;28;20512;-83
2022/02/16 10:26:57;;;;;;;2.30;1.20;;;24.10;60.60;;;;;;5059976;28;20796;-82
2022/02/16 10:29:28;;;;;;;3.33;1.13;;;24.10;60.60;;;;;;5072682;28;20468;-90
2022/02/16 10:31:56;;;;;;;2.60;1.37;;;24.20;60.60;;;;;;5056811;28;20836;-83
2022/02/16 10:34:52;;;;;;;2.93;1.13;;;24.20;60.60;;;;;;5054866;28;20456;-80
2022/02/16 10:37:21;;;;;;;5.30;1.10;;;24.20;60.50;;;;;;5060016;28;20442;-78
2022/02/16 10:40:05;;;;;;;2.00;1.10;;;24.20;60.60;;;;;;5060584;28;20437;-87
2022/02/16 10:42:33;;;;;;;5.00;1.33;;;24.30;60.60;;;;;;5068783;28;20437;-81
2022/02/16 10:45:09;;;;;;;1.60;1.00;;;24.30;60.70;;;;;;5068018;28;20847;-80
2022/02/16 10:47:59;;;;;;;3.20;1.27;;;24.30;60.40;;;;;;5073156;28;20440;-88
2022/02/16 10:50:30;;;;;;;3.63;1.27;;;24.30;60.40;;;;;;5062439;28;20449;-89
2022/02/16 10:52:58;;;;;;;1.77;1.00;;;24.30;60.40;;;;;;5059703;28;20492;-81
2022/02/16 10:55:44;;;;;;;5.80;1.17;;;24.30;60.40;;;;;;5059272;28;20469;-80
2022/02/16 10:58:14;;;;;;;2.10;0.97;;;24.30;60.30;;;;;;5068639;28;20456;-81
2022/02/16 11:00:43;;;;;;;2.97;1.40;;;24.30;60.40;;;;;;5064797;28;20781;-81
2022/02/16 11:03:11;;;;;;;1.83;1.00;;;24.40;60.50;;;;;;5069945;28;20894;-81
2022/02/16 11:05:43;;;;;;;3.17;0.93;;;24.40;60.50;;;;;;5063882;28;20485;-86
2022/02/16 11:08:14;;;;;;;1.80;1.00;;;24.30;60.20;;;;;;5058090;28;20441;-88
2022/02/16 11:10:43;;;;;;;2.13;0.90;;;24.30;60.20;;;;;;5055542;28;20441;-82
2022/02/16 11:13:11;;;;;;;2.70;1.07;;;24.40;60.30;;;;;;5057148;28;21133;-80
2022/02/16 11:15:39;;;;;;;2.00;1.00;;;24.30;60.20;;;;;;5055410;28;20441;-82
2022/02/16 11:18:13;;;;;;;3.37;1.30;;;24.40;60.20;;;;;;5055495;28;20482;-83
2022/02/16 11:20:42;;;;;;;2.57;1.00;;;24.50;60.40;;;;;;5055526;28;20472;-80
2022/02/16 11:23:10;;;;;;;2.23;0.83;;;24.40;60.40;;;;;;5055487;28;20453;-78
2022/02/16 11:25:40;;;;;;;3.30;1.27;;;24.40;60.90;;;;;;5062726;28;20487;-84
2022/02/16 11:28:12;;;;;;;1.30;0.87;;;24.30;60.90;;;;;;5073425;28;20433;-89
2022/02/16 11:30:40;;;;;;;1.60;0.77;;;24.30;60.80;;;;;;5075112;28;20446;-86
2022/02/16 11:33:12;;;;;;;1.70;1.03;;;24.30;60.00;;;;;;5066792;28;20449;-93
2022/02/16 11:35:57;;;;;;;1.67;1.07;;;24.40;60.00;;;;;;5075901;28;20958;-92
2022/02/16 11:38:38;;;;;;;1.10;0.70;;;24.40;60.50;;;;;;5081013;28;20425;-89
2022/02/16 11:41:20;;;;;;;2.20;0.97;;;24.30;60.40;;;;;;5074708;28;20546;-86
2022/02/16 11:43:55;;;;;;;2.17;0.83;;;24.30;60.60;;;;;;5067793;28;20463;-89
2022/02/16 11:46:39;;;;;;;3.60;0.97;;;24.40;60.40;;;;;;5075511;28;20845;-87
2022/02/16 11:49:06;;;;;;;1.20;0.80;;;24.40;60.20;;;;;;5075132;28;20519;-94
2022/02/16 11:51:39;;;;;;;1.40;0.87;;;24.40;60.50;;;;;;5078476;28;20461;-85
2022/02/16 11:54:44;;;;;;;2.23;0.90;;;24.40;60.40;;;;;;5075339;28;20452;-88
2022/02/16 11:57:42;;;;;;;2.47;0.80;;;24.40;60.40;;;;;;5075079;28;20444;-86
2022/02/16 12:00:21;;;;;;;3.47;0.80;;;24.40;60.50;;;;;;5074019;28;20451;-90
2022/02/16 12:03:12;;;;;;;3.37;0.90;;;24.40;60.30;;;;;;5075190;28;20447;-88
2022/02/16 12:05:45;;;;;;;2.37;0.90;;;24.50;60.40;;;;;;5074673;28;20567;-89
2022/02/16 12:08:15;;;;;;;2.60;0.90;;;24.50;60.40;;;;;;5075030;28;20836;-88
2022/02/16 12:10:43;;;;;;;2.30;0.80;;;24.50;60.30;;;;;;5074560;28;20468;-86
2022/02/16 12:13:09;;;;;;;4.03;1.10;;;24.50;60.20;;;;;;5075359;28;20445;-92
2022/02/16 12:15:37;;;;;;;2.20;1.03;;;24.50;60.20;;;;;;5075417;28;20445;-91
2022/02/16 12:18:05;;;;;;;2.17;0.80;;;24.50;60.20;;;;;;5074405;28;20469;-92
2022/02/16 12:20:32;;;;;;;4.23;1.10;;;24.60;60.30;;;;;;5076320;28;20464;-79
2022/02/16 12:23:03;;;;;;;3.63;0.90;;;24.50;60.10;;;;;;5077106;28;20463;-85
2022/02/16 12:25:32;;;;;;;1.60;0.83;;;24.50;60.20;;;;;;5073950;28;20849;-78
2022/02/16 12:28:02;;;;;;;3.20;0.80;;;24.50;60.30;;;;;;5074142;28;20916;-78
2022/02/16 12:30:37;;;;;;;3.50;1.03;;;24.50;60.50;;;;;;5074163;28;20441;-79
2022/02/16 12:33:18;;;;;;;1.17;0.80;;;24.50;60.30;;;;;;5078358;28;20446;-78
2022/02/16 12:35:45;;;;;;;2.40;1.00;;;24.60;60.10;;;;;;5072335;28;20445;-87
2022/02/16 12:38:12;;;;;;;1.03;0.83;;;24.60;60.20;;;;;;5073328;28;20972;-78
2022/02/16 12:40:40;;;;;;;1.63;0.83;;;24.50;60.40;;;;;;5073785;28;20444;-87
2022/02/16 12:43:11;;;;;;;1.00;0.80;;;24.40;60.40;;;;;;5073391;28;20455;-82
2022/02/16 12:45:38;;;;;;;1.50;0.80;;;24.40;60.50;;;;;;5073186;28;20836;-78
2022/02/16 12:48:05;;;;;;;1.00;0.70;;;24.40;60.50;;;;;;5073792;28;20797;-78
2022/02/16 12:50:33;;;;;;;1.47;0.73;;;24.40;60.70;;;;;;5073606;28;20866;-78
2022/02/16 12:53:03;;;;;;;1.43;0.93;;;24.40;60.50;;;;;;5073140;28;20455;-81
2022/02/16 12:55:31;;;;;;;1.20;0.80;;;24.40;60.40;;;;;;5073817;28;20456;-78
2022/02/16 12:57:59;;;;;;;3.13;1.20;;;24.40;60.40;;;;;;5073659;28;20441;-87